Briefing drone pour Belleville

Rechercher une autre localisation

Conditions de vol :


Nous sommes le : Dimanche 16 mai 2021
Il est 00:40 UTC (02:40 LT)

Lever de soleil : 03:26 UTC (05:26 LT)
Coucher de soleil : 19:37 UTC (21:37 LT)

Météo

L'essentiel des conditions de vol

VIGILANCE MÉTÉO FRANCE - Meurthe-et-Moselle (54)
Vigilance Jaune : Orages
CARTE TEMSI
CARTES DES FRONTS
METAR de LFSN
LFSN 160030Z AUTO 18005KT 150V210 9999 FEW008/// BKN015/// BKN025/// ///CB 10/09 Q1006

Date d'émission: 16/05/2021
Heure d'émission: 00:30 UTC
Vent: 180° (variable du 150° au 210°) pour 5 KT (9 km/h)
Visibilité horizontale: > 10 km
Plafond :
- Peu de nuages à 800ft (244m)
- Nuages morcelés à 1500ft (457m)
- Nuages morcelés à 2500ft (762m)
Température: 10 °C
Point de rosée: 9 °C
Humidité: 94%
Pression (QNH): 1006 hPa
TAF de LFSN
LFSN 141600Z 1416/1512 CNL

Conditions prévues :

Heure d'émission : Bulletin éffectué le 14 à 16:00 UTC
Prévision : Valide du 14 a 16:00 UTC au 15 a 12:00 UTC
Nuages : à 0ft (0 m)
WEBCAM POUR BELLEVILLE

Réglementation

Voler en sécurité

CARTES AERONAUTIQUE 1/500.000
CARTES VAC (LFSN)
SUP AIP




Chargement des AIP...
NOTAM (BELLEVILLE + Terrain à proximité / FIR )




Chargement des NOTAMS...
CONTACT PREFECTURE 54


Avertissement : Les données mises à disposition sont indicatives. Oxygène Drone ne pourra être tenu responsable de dégâts causés aux biens et aux personnes.